sensor_id;sensor_type;location;lat;lon;timestamp;temperature;humidity
52125;DHT22;38119;52.710;6.398;2023-02-05T00:00:15;6.20;99.90
52125;DHT22;38119;52.710;6.398;2023-02-05T00:02:41;5.90;99.90
52125;DHT22;38119;52.710;6.398;2023-02-05T00:05:07;5.90;99.90
52125;DHT22;38119;52.710;6.398;2023-02-05T00:07:32;5.80;99.90
52125;DHT22;38119;52.710;6.398;2023-02-05T00:09:58;5.80;99.90
52125;DHT22;38119;52.710;6.398;2023-02-05T00:12:23;5.80;99.90
52125;DHT22;38119;52.710;6.398;2023-02-05T00:14:49;5.80;99.90
52125;DHT22;38119;52.710;6.398;2023-02-05T00:17:15;5.80;99.90
52125;DHT22;38119;52.710;6.398;2023-02-05T00:19:40;5.80;99.90
52125;DHT22;38119;52.710;6.398;2023-02-05T00:22:06;5.80;99.90
52125;DHT22;38119;52.710;6.398;2023-02-05T00:24:31;5.80;99.90
52125;DHT22;38119;52.710;6.398;2023-02-05T00:26:57;5.90;99.90
52125;DHT22;38119;52.710;6.398;2023-02-05T00:29:22;5.80;99.90
52125;DHT22;38119;52.710;6.398;2023-02-05T00:31:49;5.90;99.90
52125;DHT22;38119;52.710;6.398;2023-02-05T00:34:15;5.90;99.90
52125;DHT22;38119;52.710;6.398;2023-02-05T00:36:41;5.90;99.90
52125;DHT22;38119;52.710;6.398;2023-02-05T00:39:07;5.80;99.90
52125;DHT22;38119;52.710;6.398;2023-02-05T00:41:36;5.80;99.90
52125;DHT22;38119;52.710;6.398;2023-02-05T00:44:01;5.90;99.90
52125;DHT22;38119;52.710;6.398;2023-02-05T00:46:27;6.20;99.90
52125;DHT22;38119;52.710;6.398;2023-02-05T00:48:52;6.00;99.90
52125;DHT22;38119;52.710;6.398;2023-02-05T00:51:18;5.90;99.90
52125;DHT22;38119;52.710;6.398;2023-02-05T00:53:43;5.90;99.90
52125;DHT22;38119;52.710;6.398;2023-02-05T00:56:09;5.90;99.90
52125;DHT22;38119;52.710;6.398;2023-02-05T00:58:35;5.90;99.90
52125;DHT22;38119;52.710;6.398;2023-02-05T01:01:04;5.90;99.90
52125;DHT22;38119;52.710;6.398;2023-02-05T01:03:30;5.90;99.90
52125;DHT22;38119;52.710;6.398;2023-02-05T01:05:56;5.90;99.90
52125;DHT22;38119;52.710;6.398;2023-02-05T01:08:22;5.90;99.90
52125;DHT22;38119;52.710;6.398;2023-02-05T01:10:49;5.90;99.90
52125;DHT22;38119;52.710;6.398;2023-02-05T01:13:16;5.90;99.90
52125;DHT22;38119;52.710;6.398;2023-02-05T01:15:42;5.90;99.90
52125;DHT22;38119;52.710;6.398;2023-02-05T01:18:11;5.90;99.90
52125;DHT22;38119;52.710;6.398;2023-02-05T01:20:37;5.90;99.90
52125;DHT22;38119;52.710;6.398;2023-02-05T01:23:04;5.90;99.90
52125;DHT22;38119;52.710;6.398;2023-02-05T01:25:29;5.90;99.90
52125;DHT22;38119;52.710;6.398;2023-02-05T01:27:55;5.90;99.90
52125;DHT22;38119;52.710;6.398;2023-02-05T01:30:20;5.90;99.90
52125;DHT22;38119;52.710;6.398;2023-02-05T01:32:46;5.90;99.90
52125;DHT22;38119;52.710;6.398;2023-02-05T01:35:12;5.90;99.90
52125;DHT22;38119;52.710;6.398;2023-02-05T01:37:38;5.90;99.90
52125;DHT22;38119;52.710;6.398;2023-02-05T01:40:04;5.90;99.90
52125;DHT22;38119;52.710;6.398;2023-02-05T01:42:31;5.90;99.90
52125;DHT22;38119;52.710;6.398;2023-02-05T01:45:25;6.00;99.90
52125;DHT22;38119;52.710;6.398;2023-02-05T01:47:59;5.90;99.90
52125;DHT22;38119;52.710;6.398;2023-02-05T01:50:34;5.90;99.90
52125;DHT22;38119;52.710;6.398;2023-02-05T01:53:05;5.90;99.90
52125;DHT22;38119;52.710;6.398;2023-02-05T01:55:31;6.10;99.90
52125;DHT22;38119;52.710;6.398;2023-02-05T01:57:59;6.00;99.90
52125;DHT22;38119;52.710;6.398;2023-02-05T02:00:25;5.90;99.90
52125;DHT22;38119;52.710;6.398;2023-02-05T02:02:52;5.90;99.90
52125;DHT22;38119;52.710;6.398;2023-02-05T02:05:18;5.90;99.90
52125;DHT22;38119;52.710;6.398;2023-02-05T02:07:44;5.90;99.90
52125;DHT22;38119;52.710;6.398;2023-02-05T02:10:12;5.90;99.90
52125;DHT22;38119;52.710;6.398;2023-02-05T02:12:40;6.00;99.90
52125;DHT22;38119;52.710;6.398;2023-02-05T02:15:11;5.90;99.90
52125;DHT22;38119;52.710;6.398;2023-02-05T02:17:40;5.90;99.90
52125;DHT22;38119;52.710;6.398;2023-02-05T02:20:12;6.00;99.90
52125;DHT22;38119;52.710;6.398;2023-02-05T02:28:13;5.90;99.90
52125;DHT22;38119;52.710;6.398;2023-02-05T02:30:41;6.00;99.90
52125;DHT22;38119;52.710;6.398;2023-02-05T02:33:20;5.90;99.90
52125;DHT22;38119;52.710;6.398;2023-02-05T02:36:12;5.90;99.90
52125;DHT22;38119;52.710;6.398;2023-02-05T02:38:54;6.00;99.90
52125;DHT22;38119;52.710;6.398;2023-02-05T02:41:42;6.00;99.90
52125;DHT22;38119;52.710;6.398;2023-02-05T02:44:47;6.00;99.90
52125;DHT22;38119;52.710;6.398;2023-02-05T02:47:17;6.00;99.90
52125;DHT22;38119;52.710;6.398;2023-02-05T02:50:16;6.00;99.90
52125;DHT22;38119;52.710;6.398;2023-02-05T02:52:43;6.00;99.90
52125;DHT22;38119;52.710;6.398;2023-02-05T02:55:12;6.00;99.90
52125;DHT22;38119;52.710;6.398;2023-02-05T02:57:40;6.00;99.90
52125;DHT22;38119;52.710;6.398;2023-02-05T03:00:13;6.00;99.90
52125;DHT22;38119;52.710;6.398;2023-02-05T03:02:41;6.10;99.90
52125;DHT22;38119;52.710;6.398;2023-02-05T03:05:11;6.10;99.90
52125;DHT22;38119;52.710;6.398;2023-02-05T03:07:41;6.10;99.90
52125;DHT22;38119;52.710;6.398;2023-02-05T03:10:28;6.10;99.90
52125;DHT22;38119;52.710;6.398;2023-02-05T03:12:56;6.10;99.90
52125;DHT22;38119;52.710;6.398;2023-02-05T03:15:22;6.20;99.90
52125;DHT22;38119;52.710;6.398;2023-02-05T03:17:50;6.20;99.90
52125;DHT22;38119;52.710;6.398;2023-02-05T03:20:26;6.20;99.90
52125;DHT22;38119;52.710;6.398;2023-02-05T03:22:54;6.20;99.90
52125;DHT22;38119;52.710;6.398;2023-02-05T03:25:21;6.20;99.90
52125;DHT22;38119;52.710;6.398;2023-02-05T03:27:48;6.20;99.90
52125;DHT22;38119;52.710;6.398;2023-02-05T03:30:16;6.20;99.90
52125;DHT22;38119;52.710;6.398;2023-02-05T03:38:09;6.20;99.90
52125;DHT22;38119;52.710;6.398;2023-02-05T03:40:54;6.20;99.90
52125;DHT22;38119;52.710;6.398;2023-02-05T03:51:37;6.30;99.90
52125;DHT22;38119;52.710;6.398;2023-02-05T03:57:15;6.30;99.90
52125;DHT22;38119;52.710;6.398;2023-02-05T03:59:43;6.20;99.90
52125;DHT22;38119;52.710;6.398;2023-02-05T04:02:10;6.80;99.90
52125;DHT22;38119;52.710;6.398;2023-02-05T04:04:36;6.30;99.90
52125;DHT22;38119;52.710;6.398;2023-02-05T04:07:02;6.30;99.90
52125;DHT22;38119;52.710;6.398;2023-02-05T04:09:27;6.40;99.90
52125;DHT22;38119;52.710;6.398;2023-02-05T04:11:53;6.40;99.90
52125;DHT22;38119;52.710;6.398;2023-02-05T04:14:18;6.40;99.90
52125;DHT22;38119;52.710;6.398;2023-02-05T04:16:44;6.40;99.90
52125;DHT22;38119;52.710;6.398;2023-02-05T04:19:10;6.40;99.90
52125;DHT22;38119;52.710;6.398;2023-02-05T04:21:35;6.40;99.90
52125;DHT22;38119;52.710;6.398;2023-02-05T04:24:01;6.40;99.90
52125;DHT22;38119;52.710;6.398;2023-02-05T04:26:27;6.40;99.90
52125;DHT22;38119;52.710;6.398;2023-02-05T04:28:52;6.40;99.90
52125;DHT22;38119;52.710;6.398;2023-02-05T04:31:18;6.40;99.90
52125;DHT22;38119;52.710;6.398;2023-02-05T04:33:44;6.40;99.90
52125;DHT22;38119;52.710;6.398;2023-02-05T04:36:10;6.40;99.90
52125;DHT22;38119;52.710;6.398;2023-02-05T04:38:35;6.50;99.90
52125;DHT22;38119;52.710;6.398;2023-02-05T04:41:01;6.50;99.90
52125;DHT22;38119;52.710;6.398;2023-02-05T04:43:27;6.50;99.90
52125;DHT22;38119;52.710;6.398;2023-02-05T04:45:52;6.50;99.90
52125;DHT22;38119;52.710;6.398;2023-02-05T04:48:18;6.50;99.90
52125;DHT22;38119;52.710;6.398;2023-02-05T04:50:46;6.50;99.90
52125;DHT22;38119;52.710;6.398;2023-02-05T04:53:12;6.50;99.90
52125;DHT22;38119;52.710;6.398;2023-02-05T04:55:38;6.50;99.90
52125;DHT22;38119;52.710;6.398;2023-02-05T04:58:03;6.60;99.90
52125;DHT22;38119;52.710;6.398;2023-02-05T05:00:29;6.60;99.90
52125;DHT22;38119;52.710;6.398;2023-02-05T05:02:56;6.60;99.90
52125;DHT22;38119;52.710;6.398;2023-02-05T05:05:21;6.60;99.90
52125;DHT22;38119;52.710;6.398;2023-02-05T05:07:50;6.60;99.90
52125;DHT22;38119;52.710;6.398;2023-02-05T05:10:16;6.70;99.90
52125;DHT22;38119;52.710;6.398;2023-02-05T05:12:41;6.70;99.90
52125;DHT22;38119;52.710;6.398;2023-02-05T05:15:07;6.70;99.90
52125;DHT22;38119;52.710;6.398;2023-02-05T05:17:33;6.70;99.90
52125;DHT22;38119;52.710;6.398;2023-02-05T05:20:00;6.70;99.90
52125;DHT22;38119;52.710;6.398;2023-02-05T05:22:25;6.90;99.90
52125;DHT22;38119;52.710;6.398;2023-02-05T05:24:51;6.70;99.90
52125;DHT22;38119;52.710;6.398;2023-02-05T05:27:17;6.70;99.90
52125;DHT22;38119;52.710;6.398;2023-02-05T05:29:46;6.80;99.90
52125;DHT22;38119;52.710;6.398;2023-02-05T05:32:12;6.80;99.90
52125;DHT22;38119;52.710;6.398;2023-02-05T05:34:38;6.80;99.90
52125;DHT22;38119;52.710;6.398;2023-02-05T05:37:04;6.70;99.90
52125;DHT22;38119;52.710;6.398;2023-02-05T05:39:29;6.70;99.90
52125;DHT22;38119;52.710;6.398;2023-02-05T05:42:13;6.70;99.90
52125;DHT22;38119;52.710;6.398;2023-02-05T05:44:57;6.80;99.90
52125;DHT22;38119;52.710;6.398;2023-02-05T05:47:23;6.80;99.90
52125;DHT22;38119;52.710;6.398;2023-02-05T05:49:49;6.80;99.90
52125;DHT22;38119;52.710;6.398;2023-02-05T05:52:14;6.70;99.90
52125;DHT22;38119;52.710;6.398;2023-02-05T05:54:40;6.80;99.90
52125;DHT22;38119;52.710;6.398;2023-02-05T05:57:06;6.80;99.90
52125;DHT22;38119;52.710;6.398;2023-02-05T05:59:32;6.80;99.90
52125;DHT22;38119;52.710;6.398;2023-02-05T06:02:00;7.00;99.90
52125;DHT22;38119;52.710;6.398;2023-02-05T06:04:26;6.80;99.90
52125;DHT22;38119;52.710;6.398;2023-02-05T06:06:52;6.80;99.90
52125;DHT22;38119;52.710;6.398;2023-02-05T06:09:19;6.80;99.90
52125;DHT22;38119;52.710;6.398;2023-02-05T06:11:46;6.70;99.90
52125;DHT22;38119;52.710;6.398;2023-02-05T06:14:12;6.70;99.90
52125;DHT22;38119;52.710;6.398;2023-02-05T06:16:39;6.70;99.90
52125;DHT22;38119;52.710;6.398;2023-02-05T06:19:04;6.60;99.90
52125;DHT22;38119;52.710;6.398;2023-02-05T06:21:30;6.60;99.90
52125;DHT22;38119;52.710;6.398;2023-02-05T06:23:56;6.60;99.90
52125;DHT22;38119;52.710;6.398;2023-02-05T06:26:21;6.60;99.90
52125;DHT22;38119;52.710;6.398;2023-02-05T06:28:47;6.50;99.90
52125;DHT22;38119;52.710;6.398;2023-02-05T06:31:12;6.60;99.90
52125;DHT22;38119;52.710;6.398;2023-02-05T06:33:38;6.50;99.90
52125;DHT22;38119;52.710;6.398;2023-02-05T06:36:04;6.70;99.90
52125;DHT22;38119;52.710;6.398;2023-02-05T06:38:30;6.50;99.90
52125;DHT22;38119;52.710;6.398;2023-02-05T06:40:55;6.50;99.90
52125;DHT22;38119;52.710;6.398;2023-02-05T06:43:21;6.50;99.90
52125;DHT22;38119;52.710;6.398;2023-02-05T06:45:46;6.40;99.90
52125;DHT22;38119;52.710;6.398;2023-02-05T06:48:12;6.40;99.90
52125;DHT22;38119;52.710;6.398;2023-02-05T06:50:38;6.40;99.90
52125;DHT22;38119;52.710;6.398;2023-02-05T06:53:04;6.40;99.90
52125;DHT22;38119;52.710;6.398;2023-02-05T06:55:29;6.40;99.90
52125;DHT22;38119;52.710;6.398;2023-02-05T06:57:55;6.40;99.90
52125;DHT22;38119;52.710;6.398;2023-02-05T07:00:21;6.40;99.90
52125;DHT22;38119;52.710;6.398;2023-02-05T07:02:46;6.40;99.90
52125;DHT22;38119;52.710;6.398;2023-02-05T07:05:12;6.40;99.90
52125;DHT22;38119;52.710;6.398;2023-02-05T07:07:37;6.40;99.90
52125;DHT22;38119;52.710;6.398;2023-02-05T07:10:04;6.40;99.90
52125;DHT22;38119;52.710;6.398;2023-02-05T07:12:30;6.40;99.90
52125;DHT22;38119;52.710;6.398;2023-02-05T07:14:55;6.40;99.90
52125;DHT22;38119;52.710;6.398;2023-02-05T07:17:21;6.40;99.90
52125;DHT22;38119;52.710;6.398;2023-02-05T07:19:46;6.50;99.90
52125;DHT22;38119;52.710;6.398;2023-02-05T07:22:13;6.30;99.90
52125;DHT22;38119;52.710;6.398;2023-02-05T07:24:38;6.40;99.90
52125;DHT22;38119;52.710;6.398;2023-02-05T07:27:04;6.30;99.90
52125;DHT22;38119;52.710;6.398;2023-02-05T07:29:30;6.30;99.90
52125;DHT22;38119;52.710;6.398;2023-02-05T07:31:55;6.40;99.90
52125;DHT22;38119;52.710;6.398;2023-02-05T07:34:21;6.30;99.90
52125;DHT22;38119;52.710;6.398;2023-02-05T07:36:51;6.40;99.90
52125;DHT22;38119;52.710;6.398;2023-02-05T07:39:17;6.80;99.90
52125;DHT22;38119;52.710;6.398;2023-02-05T07:41:42;6.40;99.90
52125;DHT22;38119;52.710;6.398;2023-02-05T07:44:08;6.40;99.90
52125;DHT22;38119;52.710;6.398;2023-02-05T07:46:34;6.40;99.90
52125;DHT22;38119;52.710;6.398;2023-02-05T07:48:59;6.40;99.90
52125;DHT22;38119;52.710;6.398;2023-02-05T07:51:25;6.40;99.90
52125;DHT22;38119;52.710;6.398;2023-02-05T07:53:51;6.40;99.90
52125;DHT22;38119;52.710;6.398;2023-02-05T07:56:17;6.40;99.90
52125;DHT22;38119;52.710;6.398;2023-02-05T07:58:46;6.40;99.90
52125;DHT22;38119;52.710;6.398;2023-02-05T08:01:12;6.50;99.90
52125;DHT22;38119;52.710;6.398;2023-02-05T08:03:38;6.50;99.90
52125;DHT22;38119;52.710;6.398;2023-02-05T08:06:05;6.40;99.90
52125;DHT22;38119;52.710;6.398;2023-02-05T08:08:31;6.50;99.90
52125;DHT22;38119;52.710;6.398;2023-02-05T08:10:59;6.40;99.90
52125;DHT22;38119;52.710;6.398;2023-02-05T08:13:25;6.50;99.90
52125;DHT22;38119;52.710;6.398;2023-02-05T08:15:51;6.50;99.90
52125;DHT22;38119;52.710;6.398;2023-02-05T08:18:16;6.50;99.90
52125;DHT22;38119;52.710;6.398;2023-02-05T08:20:43;6.50;99.90
52125;DHT22;38119;52.710;6.398;2023-02-05T08:23:09;6.50;99.90
52125;DHT22;38119;52.710;6.398;2023-02-05T08:25:34;6.50;99.90
52125;DHT22;38119;52.710;6.398;2023-02-05T08:28:00;6.60;99.90
52125;DHT22;38119;52.710;6.398;2023-02-05T08:30:26;6.50;99.90
52125;DHT22;38119;52.710;6.398;2023-02-05T08:32:51;6.50;99.90
52125;DHT22;38119;52.710;6.398;2023-02-05T08:35:17;6.60;99.90
52125;DHT22;38119;52.710;6.398;2023-02-05T08:37:42;6.60;99.90
52125;DHT22;38119;52.710;6.398;2023-02-05T08:40:09;6.60;99.90
52125;DHT22;38119;52.710;6.398;2023-02-05T08:42:35;6.50;99.90
52125;DHT22;38119;52.710;6.398;2023-02-05T08:45:00;6.60;99.90
52125;DHT22;38119;52.710;6.398;2023-02-05T08:47:27;6.60;99.90
52125;DHT22;38119;52.710;6.398;2023-02-05T08:49:53;6.60;99.90
52125;DHT22;38119;52.710;6.398;2023-02-05T08:52:19;6.60;99.90
52125;DHT22;38119;52.710;6.398;2023-02-05T08:54:44;6.60;99.90
52125;DHT22;38119;52.710;6.398;2023-02-05T08:57:11;6.60;99.90
52125;DHT22;38119;52.710;6.398;2023-02-05T08:59:36;7.00;99.90
52125;DHT22;38119;52.710;6.398;2023-02-05T09:02:02;6.70;99.90
52125;DHT22;38119;52.710;6.398;2023-02-05T09:04:28;6.70;99.90
52125;DHT22;38119;52.710;6.398;2023-02-05T09:06:55;6.70;99.90
52125;DHT22;38119;52.710;6.398;2023-02-05T09:09:21;6.70;99.90
52125;DHT22;38119;52.710;6.398;2023-02-05T09:11:46;6.70;99.90
52125;DHT22;38119;52.710;6.398;2023-02-05T09:14:13;6.70;99.90
52125;DHT22;38119;52.710;6.398;2023-02-05T09:16:39;6.80;99.90
52125;DHT22;38119;52.710;6.398;2023-02-05T09:19:05;6.80;99.90
52125;DHT22;38119;52.710;6.398;2023-02-05T09:21:31;6.80;99.90
52125;DHT22;38119;52.710;6.398;2023-02-05T09:23:57;6.80;99.90
52125;DHT22;38119;52.710;6.398;2023-02-05T09:26:23;6.80;99.90
52125;DHT22;38119;52.710;6.398;2023-02-05T09:28:49;6.80;99.90
52125;DHT22;38119;52.710;6.398;2023-02-05T09:31:17;6.80;99.90
52125;DHT22;38119;52.710;6.398;2023-02-05T09:33:43;6.90;99.90
52125;DHT22;38119;52.710;6.398;2023-02-05T09:36:14;6.80;99.90
52125;DHT22;38119;52.710;6.398;2023-02-05T09:38:40;6.90;99.90
52125;DHT22;38119;52.710;6.398;2023-02-05T09:41:13;6.90;99.90
52125;DHT22;38119;52.710;6.398;2023-02-05T09:51:52;6.90;99.90
52125;DHT22;38119;52.710;6.398;2023-02-05T09:56:47;6.90;99.90
52125;DHT22;38119;52.710;6.398;2023-02-05T09:59:21;7.00;99.90
52125;DHT22;38119;52.710;6.398;2023-02-05T10:01:48;7.00;99.90
52125;DHT22;38119;52.710;6.398;2023-02-05T10:04:15;7.00;99.90
52125;DHT22;38119;52.710;6.398;2023-02-05T10:07:16;7.00;99.90
52125;DHT22;38119;52.710;6.398;2023-02-05T10:12:40;7.00;99.90
52125;DHT22;38119;52.710;6.398;2023-02-05T10:26:47;7.30;99.90
52125;DHT22;38119;52.710;6.398;2023-02-05T10:37:17;7.40;99.90
52125;DHT22;38119;52.710;6.398;2023-02-05T10:39:44;7.40;99.90
52125;DHT22;38119;52.710;6.398;2023-02-05T10:42:32;7.50;99.90
52125;DHT22;38119;52.710;6.398;2023-02-05T10:45:13;7.50;99.90
52125;DHT22;38119;52.710;6.398;2023-02-05T10:47:47;7.50;99.90
52125;DHT22;38119;52.710;6.398;2023-02-05T10:52:58;7.60;99.90
52125;DHT22;38119;52.710;6.398;2023-02-05T10:55:23;7.60;99.90
52125;DHT22;38119;52.710;6.398;2023-02-05T10:57:49;7.70;99.90
52125;DHT22;38119;52.710;6.398;2023-02-05T11:00:20;7.60;99.90
52125;DHT22;38119;52.710;6.398;2023-02-05T11:02:51;7.70;99.90
52125;DHT22;38119;52.710;6.398;2023-02-05T11:05:39;7.70;99.90
52125;DHT22;38119;52.710;6.398;2023-02-05T11:08:32;7.70;99.90
52125;DHT22;38119;52.710;6.398;2023-02-05T11:10:59;7.60;99.90
52125;DHT22;38119;52.710;6.398;2023-02-05T11:13:26;7.70;99.90
52125;DHT22;38119;52.710;6.398;2023-02-05T11:16:10;7.60;99.90
52125;DHT22;38119;52.710;6.398;2023-02-05T11:18:43;7.60;99.90
52125;DHT22;38119;52.710;6.398;2023-02-05T11:21:12;7.60;99.90
52125;DHT22;38119;52.710;6.398;2023-02-05T11:23:39;7.70;99.90
52125;DHT22;38119;52.710;6.398;2023-02-05T11:26:20;7.70;99.90
52125;DHT22;38119;52.710;6.398;2023-02-05T11:28:46;7.80;99.90
52125;DHT22;38119;52.710;6.398;2023-02-05T11:33:46;7.80;99.90
52125;DHT22;38119;52.710;6.398;2023-02-05T11:36:22;7.80;99.90
52125;DHT22;38119;52.710;6.398;2023-02-05T11:38:51;7.90;99.90
52125;DHT22;38119;52.710;6.398;2023-02-05T11:41:32;7.90;99.90
52125;DHT22;38119;52.710;6.398;2023-02-05T11:44:33;8.10;99.90
52125;DHT22;38119;52.710;6.398;2023-02-05T11:47:02;8.10;99.90
52125;DHT22;38119;52.710;6.398;2023-02-05T11:49:35;8.20;99.90
52125;DHT22;38119;52.710;6.398;2023-02-05T11:52:11;8.50;99.90
52125;DHT22;38119;52.710;6.398;2023-02-05T11:54:37;8.40;99.90
52125;DHT22;38119;52.710;6.398;2023-02-05T11:59:39;8.50;99.90
52125;DHT22;38119;52.710;6.398;2023-02-05T12:07:54;8.50;99.90
52125;DHT22;38119;52.710;6.398;2023-02-05T12:21:50;8.40;99.90
52125;DHT22;38119;52.710;6.398;2023-02-05T12:27:08;8.40;99.90
52125;DHT22;38119;52.710;6.398;2023-02-05T12:33:05;8.50;99.90
52125;DHT22;38119;52.710;6.398;2023-02-05T12:43:39;8.60;99.90
52125;DHT22;38119;52.710;6.398;2023-02-05T12:49:04;8.70;99.90
52125;DHT22;38119;52.710;6.398;2023-02-05T12:57:00;8.70;99.90
52125;DHT22;38119;52.710;6.398;2023-02-05T12:59:51;8.70;99.90
52125;DHT22;38119;52.710;6.398;2023-02-05T13:02:35;8.70;99.90
52125;DHT22;38119;52.710;6.398;2023-02-05T13:05:21;8.70;99.90
52125;DHT22;38119;52.710;6.398;2023-02-05T13:08:12;8.70;99.90
52125;DHT22;38119;52.710;6.398;2023-02-05T13:13:27;8.70;99.90
52125;DHT22;38119;52.710;6.398;2023-02-05T13:16:08;8.70;99.90
52125;DHT22;38119;52.710;6.398;2023-02-05T13:18:59;8.70;99.90
52125;DHT22;38119;52.710;6.398;2023-02-05T13:21:26;8.70;99.90
52125;DHT22;38119;52.710;6.398;2023-02-05T13:24:35;8.70;99.90
52125;DHT22;38119;52.710;6.398;2023-02-05T13:27:27;8.70;99.90
52125;DHT22;38119;52.710;6.398;2023-02-05T13:30:15;8.70;99.90
52125;DHT22;38119;52.710;6.398;2023-02-05T13:32:47;8.70;99.90
52125;DHT22;38119;52.710;6.398;2023-02-05T13:35:14;8.70;99.90
52125;DHT22;38119;52.710;6.398;2023-02-05T13:37:50;8.60;99.90
52125;DHT22;38119;52.710;6.398;2023-02-05T13:43:38;8.60;99.90
52125;DHT22;38119;52.710;6.398;2023-02-05T14:00:07;8.50;99.90
52125;DHT22;38119;52.710;6.398;2023-02-05T14:02:46;8.50;99.90
52125;DHT22;38119;52.710;6.398;2023-02-05T14:05:14;8.40;99.90
52125;DHT22;38119;52.710;6.398;2023-02-05T14:07:49;8.40;99.90
52125;DHT22;38119;52.710;6.398;2023-02-05T14:10:31;8.40;99.90
52125;DHT22;38119;52.710;6.398;2023-02-05T14:13:30;8.40;99.90
52125;DHT22;38119;52.710;6.398;2023-02-05T14:19:09;8.60;99.90
52125;DHT22;38119;52.710;6.398;2023-02-05T14:26:54;8.90;99.90
52125;DHT22;38119;52.710;6.398;2023-02-05T14:29:41;9.10;99.90
52125;DHT22;38119;52.710;6.398;2023-02-05T14:32:10;9.30;99.90
52125;DHT22;38119;52.710;6.398;2023-02-05T14:37:02;9.50;99.90
52125;DHT22;38119;52.710;6.398;2023-02-05T14:39:31;9.60;99.90
52125;DHT22;38119;52.710;6.398;2023-02-05T14:41:59;9.60;99.90
52125;DHT22;38119;52.710;6.398;2023-02-05T14:44:32;9.40;99.90
52125;DHT22;38119;52.710;6.398;2023-02-05T14:47:05;9.10;99.90
52125;DHT22;38119;52.710;6.398;2023-02-05T14:54:50;8.60;99.90
52125;DHT22;38119;52.710;6.398;2023-02-05T15:00:31;8.40;99.90
52125;DHT22;38119;52.710;6.398;2023-02-05T15:05:33;8.30;99.90
52125;DHT22;38119;52.710;6.398;2023-02-05T15:13:36;8.20;99.90
52125;DHT22;38119;52.710;6.398;2023-02-05T15:18:43;8.10;99.90
52125;DHT22;38119;52.710;6.398;2023-02-05T15:21:24;8.10;99.90
52125;DHT22;38119;52.710;6.398;2023-02-05T15:24:12;8.00;99.90
52125;DHT22;38119;52.710;6.398;2023-02-05T15:28:00;8.00;99.90
52125;DHT22;38119;52.710;6.398;2023-02-05T15:29:53;8.00;99.90
52125;DHT22;38119;52.710;6.398;2023-02-05T15:32:34;7.90;99.90
52125;DHT22;38119;52.710;6.398;2023-02-05T15:35:10;7.90;99.90
52125;DHT22;38119;52.710;6.398;2023-02-05T15:40:49;7.90;99.90
52125;DHT22;38119;52.710;6.398;2023-02-05T15:43:19;7.90;99.90
52125;DHT22;38119;52.710;6.398;2023-02-05T15:45:46;7.80;99.90
52125;DHT22;38119;52.710;6.398;2023-02-05T15:48:14;7.80;99.90
52125;DHT22;38119;52.710;6.398;2023-02-05T15:53:38;7.80;99.90
52125;DHT22;38119;52.710;6.398;2023-02-05T15:56:32;7.70;99.90
52125;DHT22;38119;52.710;6.398;2023-02-05T15:59:09;7.70;99.90
52125;DHT22;38119;52.710;6.398;2023-02-05T16:01:47;7.70;99.90
52125;DHT22;38119;52.710;6.398;2023-02-05T16:04:29;7.70;99.90
52125;DHT22;38119;52.710;6.398;2023-02-05T16:06:55;7.70;99.90
52125;DHT22;38119;52.710;6.398;2023-02-05T16:09:23;7.60;99.90
52125;DHT22;38119;52.710;6.398;2023-02-05T16:11:50;7.60;99.90
52125;DHT22;38119;52.710;6.398;2023-02-05T16:14:25;7.60;99.90
52125;DHT22;38119;52.710;6.398;2023-02-05T16:17:18;7.60;99.90
52125;DHT22;38119;52.710;6.398;2023-02-05T16:19:55;7.60;99.90
52125;DHT22;38119;52.710;6.398;2023-02-05T16:22:46;7.50;99.90
52125;DHT22;38119;52.710;6.398;2023-02-05T16:25:47;7.50;99.90
52125;DHT22;38119;52.710;6.398;2023-02-05T16:28:54;7.50;99.90
52125;DHT22;38119;52.710;6.398;2023-02-05T16:31:22;7.50;99.90
52125;DHT22;38119;52.710;6.398;2023-02-05T16:33:52;7.50;99.90
52125;DHT22;38119;52.710;6.398;2023-02-05T16:36:40;7.50;99.90
52125;DHT22;38119;52.710;6.398;2023-02-05T16:39:24;7.40;99.90
52125;DHT22;38119;52.710;6.398;2023-02-05T16:47:34;7.40;99.90
52125;DHT22;38119;52.710;6.398;2023-02-05T16:50:00;7.30;99.90
52125;DHT22;38119;52.710;6.398;2023-02-05T16:52:32;7.30;99.90
52125;DHT22;38119;52.710;6.398;2023-02-05T16:57:49;7.30;99.90
52125;DHT22;38119;52.710;6.398;2023-02-05T17:00:21;7.30;99.90
52125;DHT22;38119;52.710;6.398;2023-02-05T17:02:52;7.30;99.90
52125;DHT22;38119;52.710;6.398;2023-02-05T17:05:24;7.30;99.90
52125;DHT22;38119;52.710;6.398;2023-02-05T17:07:55;7.20;99.90
52125;DHT22;38119;52.710;6.398;2023-02-05T17:10:21;7.20;99.90
52125;DHT22;38119;52.710;6.398;2023-02-05T17:18:20;7.10;99.90
52125;DHT22;38119;52.710;6.398;2023-02-05T17:20:46;7.10;99.90
52125;DHT22;38119;52.710;6.398;2023-02-05T17:23:14;7.00;99.90
52125;DHT22;38119;52.710;6.398;2023-02-05T17:25:53;7.00;99.90
52125;DHT22;38119;52.710;6.398;2023-02-05T17:28:25;7.00;99.90
52125;DHT22;38119;52.710;6.398;2023-02-05T17:30:52;7.00;99.90
52125;DHT22;38119;52.710;6.398;2023-02-05T17:33:24;6.90;99.90
52125;DHT22;38119;52.710;6.398;2023-02-05T17:35:50;6.90;99.90
52125;DHT22;38119;52.710;6.398;2023-02-05T17:38:16;7.00;99.90
52125;DHT22;38119;52.710;6.398;2023-02-05T17:40:43;6.80;99.90
52125;DHT22;38119;52.710;6.398;2023-02-05T17:43:09;6.90;99.90
52125;DHT22;38119;52.710;6.398;2023-02-05T17:45:38;6.80;99.90
52125;DHT22;38119;52.710;6.398;2023-02-05T17:48:05;6.80;99.90
52125;DHT22;38119;52.710;6.398;2023-02-05T17:50:31;6.70;99.90
52125;DHT22;38119;52.710;6.398;2023-02-05T17:52:59;6.70;99.90
52125;DHT22;38119;52.710;6.398;2023-02-05T17:55:25;6.70;99.90
52125;DHT22;38119;52.710;6.398;2023-02-05T17:57:51;6.70;99.90
52125;DHT22;38119;52.710;6.398;2023-02-05T18:00:21;6.70;99.90
52125;DHT22;38119;52.710;6.398;2023-02-05T18:02:48;6.60;99.90
52125;DHT22;38119;52.710;6.398;2023-02-05T18:05:13;6.60;99.90
52125;DHT22;38119;52.710;6.398;2023-02-05T18:07:54;6.60;99.90
52125;DHT22;38119;52.710;6.398;2023-02-05T18:10:24;6.60;99.90
52125;DHT22;38119;52.710;6.398;2023-02-05T18:12:51;6.50;99.90
52125;DHT22;38119;52.710;6.398;2023-02-05T18:15:18;6.50;99.90
52125;DHT22;38119;52.710;6.398;2023-02-05T18:17:44;6.50;99.90
52125;DHT22;38119;52.710;6.398;2023-02-05T18:20:11;6.50;99.90
52125;DHT22;38119;52.710;6.398;2023-02-05T18:22:37;6.40;99.90
52125;DHT22;38119;52.710;6.398;2023-02-05T18:25:04;6.40;99.90
52125;DHT22;38119;52.710;6.398;2023-02-05T18:27:30;6.40;99.90
52125;DHT22;38119;52.710;6.398;2023-02-05T18:29:56;6.40;99.90
52125;DHT22;38119;52.710;6.398;2023-02-05T18:32:21;6.30;99.90
52125;DHT22;38119;52.710;6.398;2023-02-05T18:34:47;6.30;99.90
52125;DHT22;38119;52.710;6.398;2023-02-05T18:37:13;6.30;99.90
52125;DHT22;38119;52.710;6.398;2023-02-05T18:39:41;6.20;99.90
52125;DHT22;38119;52.710;6.398;2023-02-05T18:42:07;6.20;99.90
52125;DHT22;38119;52.710;6.398;2023-02-05T18:44:32;6.20;99.90
52125;DHT22;38119;52.710;6.398;2023-02-05T18:46:58;6.20;99.90
52125;DHT22;38119;52.710;6.398;2023-02-05T18:49:24;6.10;99.90
52125;DHT22;38119;52.710;6.398;2023-02-05T18:51:49;6.00;99.90
52125;DHT22;38119;52.710;6.398;2023-02-05T18:54:15;6.00;99.90